sensor_id;sensor_type;location;lat;lon;timestamp;temperature;humidity
13684;DHT22;6914;53.552;9.908;2022-11-15T00:02:00;6.10;99.90
13684;DHT22;6914;53.552;9.908;2022-11-15T00:04:29;6.10;99.90
13684;DHT22;6914;53.552;9.908;2022-11-15T00:06:56;6.10;99.90
13684;DHT22;6914;53.552;9.908;2022-11-15T00:09:23;6.10;99.90
13684;DHT22;6914;53.552;9.908;2022-11-15T00:11:51;6.20;99.90
13684;DHT22;6914;53.552;9.908;2022-11-15T00:14:18;6.10;99.90
13684;DHT22;6914;53.552;9.908;2022-11-15T00:16:46;6.00;99.90
13684;DHT22;6914;53.552;9.908;2022-11-15T00:19:13;5.90;99.90
13684;DHT22;6914;53.552;9.908;2022-11-15T00:21:39;6.50;99.90
13684;DHT22;6914;53.552;9.908;2022-11-15T00:24:06;6.10;99.90
13684;DHT22;6914;53.552;9.908;2022-11-15T00:26:33;6.30;99.90
13684;DHT22;6914;53.552;9.908;2022-11-15T00:29:00;6.00;99.90
13684;DHT22;6914;53.552;9.908;2022-11-15T00:31:26;6.10;99.90
13684;DHT22;6914;53.552;9.908;2022-11-15T00:33:54;6.20;99.90
13684;DHT22;6914;53.552;9.908;2022-11-15T00:36:21;6.20;99.90
13684;DHT22;6914;53.552;9.908;2022-11-15T00:38:48;6.30;99.90
13684;DHT22;6914;53.552;9.908;2022-11-15T00:41:14;6.20;99.90
13684;DHT22;6914;53.552;9.908;2022-11-15T00:43:41;6.20;99.90
13684;DHT22;6914;53.552;9.908;2022-11-15T00:46:09;6.30;99.90
13684;DHT22;6914;53.552;9.908;2022-11-15T00:48:35;6.00;99.90
13684;DHT22;6914;53.552;9.908;2022-11-15T00:51:04;6.20;99.90
13684;DHT22;6914;53.552;9.908;2022-11-15T00:53:30;6.20;99.90
13684;DHT22;6914;53.552;9.908;2022-11-15T00:55:57;6.30;99.90
13684;DHT22;6914;53.552;9.908;2022-11-15T00:58:24;6.50;99.90
13684;DHT22;6914;53.552;9.908;2022-11-15T01:00:50;7.40;99.90
13684;DHT22;6914;53.552;9.908;2022-11-15T01:03:17;6.70;99.90
13684;DHT22;6914;53.552;9.908;2022-11-15T01:05:44;6.20;99.90
13684;DHT22;6914;53.552;9.908;2022-11-15T01:08:16;6.00;99.90
13684;DHT22;6914;53.552;9.908;2022-11-15T01:10:43;6.10;99.90
13684;DHT22;6914;53.552;9.908;2022-11-15T01:13:10;6.00;99.90
13684;DHT22;6914;53.552;9.908;2022-11-15T01:15:39;5.90;99.90
13684;DHT22;6914;53.552;9.908;2022-11-15T01:18:06;7.10;99.90
13684;DHT22;6914;53.552;9.908;2022-11-15T01:20:33;6.00;99.90
13684;DHT22;6914;53.552;9.908;2022-11-15T01:22:59;5.90;99.90
13684;DHT22;6914;53.552;9.908;2022-11-15T01:25:27;5.80;99.90
13684;DHT22;6914;53.552;9.908;2022-11-15T01:27:54;5.90;99.90
13684;DHT22;6914;53.552;9.908;2022-11-15T01:30:21;5.90;99.90
13684;DHT22;6914;53.552;9.908;2022-11-15T01:32:48;5.80;99.90
13684;DHT22;6914;53.552;9.908;2022-11-15T01:35:14;5.80;99.90
13684;DHT22;6914;53.552;9.908;2022-11-15T01:37:41;5.90;99.90
13684;DHT22;6914;53.552;9.908;2022-11-15T01:40:09;5.50;99.90
13684;DHT22;6914;53.552;9.908;2022-11-15T01:42:37;5.70;99.90
13684;DHT22;6914;53.552;9.908;2022-11-15T01:45:05;5.50;99.90
13684;DHT22;6914;53.552;9.908;2022-11-15T01:47:34;5.90;99.90
13684;DHT22;6914;53.552;9.908;2022-11-15T01:50:04;5.50;99.90
13684;DHT22;6914;53.552;9.908;2022-11-15T01:52:32;5.60;99.90
13684;DHT22;6914;53.552;9.908;2022-11-15T01:55:03;7.20;99.90
13684;DHT22;6914;53.552;9.908;2022-11-15T01:57:31;5.60;99.90
13684;DHT22;6914;53.552;9.908;2022-11-15T02:00:01;5.60;99.90
13684;DHT22;6914;53.552;9.908;2022-11-15T02:02:29;5.50;99.90
13684;DHT22;6914;53.552;9.908;2022-11-15T02:04:56;5.20;99.90
13684;DHT22;6914;53.552;9.908;2022-11-15T02:07:23;5.50;99.90
13684;DHT22;6914;53.552;9.908;2022-11-15T02:09:50;5.40;99.90
13684;DHT22;6914;53.552;9.908;2022-11-15T02:12:19;5.40;99.90
13684;DHT22;6914;53.552;9.908;2022-11-15T02:14:50;5.30;99.90
13684;DHT22;6914;53.552;9.908;2022-11-15T02:17:43;5.40;99.90
13684;DHT22;6914;53.552;9.908;2022-11-15T02:20:35;5.50;99.90
13684;DHT22;6914;53.552;9.908;2022-11-15T02:23:21;5.50;99.90
13684;DHT22;6914;53.552;9.908;2022-11-15T02:26:14;5.50;99.90
13684;DHT22;6914;53.552;9.908;2022-11-15T02:28:50;5.30;99.90
13684;DHT22;6914;53.552;9.908;2022-11-15T02:31:28;5.40;99.90
13684;DHT22;6914;53.552;9.908;2022-11-15T02:34:02;5.20;99.90
13684;DHT22;6914;53.552;9.908;2022-11-15T02:36:37;5.20;99.90
13684;DHT22;6914;53.552;9.908;2022-11-15T02:39:13;6.30;99.90
13684;DHT22;6914;53.552;9.908;2022-11-15T02:41:45;5.30;99.90
13684;DHT22;6914;53.552;9.908;2022-11-15T02:44:16;5.20;99.90
13684;DHT22;6914;53.552;9.908;2022-11-15T02:46:48;5.20;99.90
13684;DHT22;6914;53.552;9.908;2022-11-15T02:49:34;5.00;99.90
13684;DHT22;6914;53.552;9.908;2022-11-15T02:52:01;5.10;99.90
13684;DHT22;6914;53.552;9.908;2022-11-15T02:54:31;5.20;99.90
13684;DHT22;6914;53.552;9.908;2022-11-15T02:57:01;5.00;99.90
13684;DHT22;6914;53.552;9.908;2022-11-15T02:59:51;5.00;99.90
13684;DHT22;6914;53.552;9.908;2022-11-15T03:02:38;5.10;99.90
13684;DHT22;6914;53.552;9.908;2022-11-15T03:05:15;5.00;99.90
13684;DHT22;6914;53.552;9.908;2022-11-15T03:07:49;4.90;99.90
13684;DHT22;6914;53.552;9.908;2022-11-15T03:10:21;4.90;99.90
13684;DHT22;6914;53.552;9.908;2022-11-15T03:12:53;5.10;99.90
13684;DHT22;6914;53.552;9.908;2022-11-15T03:15:25;5.00;99.90
13684;DHT22;6914;53.552;9.908;2022-11-15T03:17:57;4.80;99.90
13684;DHT22;6914;53.552;9.908;2022-11-15T03:20:26;5.20;99.90
13684;DHT22;6914;53.552;9.908;2022-11-15T03:22:55;5.00;99.90
13684;DHT22;6914;53.552;9.908;2022-11-15T03:25:25;4.80;99.90
13684;DHT22;6914;53.552;9.908;2022-11-15T03:27:54;5.10;99.90
13684;DHT22;6914;53.552;9.908;2022-11-15T03:30:21;5.10;99.90
13684;DHT22;6914;53.552;9.908;2022-11-15T03:32:52;5.20;99.90
13684;DHT22;6914;53.552;9.908;2022-11-15T03:35:23;5.10;99.90
13684;DHT22;6914;53.552;9.908;2022-11-15T03:37:55;5.20;99.90
13684;DHT22;6914;53.552;9.908;2022-11-15T03:40:29;5.00;99.90
13684;DHT22;6914;53.552;9.908;2022-11-15T03:43:00;5.20;99.90
13684;DHT22;6914;53.552;9.908;2022-11-15T03:45:31;4.90;99.90
13684;DHT22;6914;53.552;9.908;2022-11-15T03:48:02;5.20;99.90
13684;DHT22;6914;53.552;9.908;2022-11-15T03:50:33;5.30;99.90
13684;DHT22;6914;53.552;9.908;2022-11-15T03:53:01;5.10;99.90
13684;DHT22;6914;53.552;9.908;2022-11-15T03:55:28;5.20;99.90
13684;DHT22;6914;53.552;9.908;2022-11-15T03:57:57;5.20;99.90
13684;DHT22;6914;53.552;9.908;2022-11-15T04:00:25;5.20;99.90
13684;DHT22;6914;53.552;9.908;2022-11-15T04:02:51;4.90;99.90
13684;DHT22;6914;53.552;9.908;2022-11-15T04:05:18;5.30;99.90
13684;DHT22;6914;53.552;9.908;2022-11-15T04:07:46;5.20;99.90
13684;DHT22;6914;53.552;9.908;2022-11-15T04:10:13;5.20;99.90
13684;DHT22;6914;53.552;9.908;2022-11-15T04:12:41;5.40;99.90
13684;DHT22;6914;53.552;9.908;2022-11-15T04:15:11;5.50;99.90
13684;DHT22;6914;53.552;9.908;2022-11-15T04:17:40;5.40;99.90
13684;DHT22;6914;53.552;9.908;2022-11-15T04:20:09;5.50;99.90
13684;DHT22;6914;53.552;9.908;2022-11-15T04:22:56;5.60;99.90
13684;DHT22;6914;53.552;9.908;2022-11-15T04:25:42;5.60;99.90
13684;DHT22;6914;53.552;9.908;2022-11-15T04:28:09;5.50;99.90
13684;DHT22;6914;53.552;9.908;2022-11-15T04:30:36;6.80;99.90
13684;DHT22;6914;53.552;9.908;2022-11-15T04:33:03;5.40;99.90
13684;DHT22;6914;53.552;9.908;2022-11-15T04:35:30;5.70;99.90
13684;DHT22;6914;53.552;9.908;2022-11-15T04:37:58;5.70;99.90
13684;DHT22;6914;53.552;9.908;2022-11-15T04:40:24;5.50;99.90
13684;DHT22;6914;53.552;9.908;2022-11-15T04:42:51;5.40;99.90
13684;DHT22;6914;53.552;9.908;2022-11-15T04:45:17;6.00;99.90
13684;DHT22;6914;53.552;9.908;2022-11-15T04:47:44;5.60;99.90
13684;DHT22;6914;53.552;9.908;2022-11-15T04:50:12;7.30;99.90
13684;DHT22;6914;53.552;9.908;2022-11-15T04:52:40;6.00;99.90
13684;DHT22;6914;53.552;9.908;2022-11-15T04:55:09;6.10;99.90
13684;DHT22;6914;53.552;9.908;2022-11-15T04:57:36;6.10;99.90
13684;DHT22;6914;53.552;9.908;2022-11-15T05:00:04;6.10;99.90
13684;DHT22;6914;53.552;9.908;2022-11-15T05:02:31;6.40;99.90
13684;DHT22;6914;53.552;9.908;2022-11-15T05:05:12;6.10;99.90
13684;DHT22;6914;53.552;9.908;2022-11-15T05:07:38;6.70;99.90
13684;DHT22;6914;53.552;9.908;2022-11-15T05:10:05;6.10;99.90
13684;DHT22;6914;53.552;9.908;2022-11-15T05:12:33;6.30;99.90
13684;DHT22;6914;53.552;9.908;2022-11-15T05:15:00;6.00;99.90
13684;DHT22;6914;53.552;9.908;2022-11-15T05:17:27;7.60;99.90
13684;DHT22;6914;53.552;9.908;2022-11-15T05:19:54;6.50;99.90
13684;DHT22;6914;53.552;9.908;2022-11-15T05:22:20;6.30;99.90
13684;DHT22;6914;53.552;9.908;2022-11-15T05:24:48;6.20;99.90
13684;DHT22;6914;53.552;9.908;2022-11-15T05:27:14;6.10;99.90
13684;DHT22;6914;53.552;9.908;2022-11-15T05:29:42;6.30;99.90
13684;DHT22;6914;53.552;9.908;2022-11-15T05:32:11;6.10;99.90
13684;DHT22;6914;53.552;9.908;2022-11-15T05:34:38;6.30;99.90
13684;DHT22;6914;53.552;9.908;2022-11-15T05:37:05;6.40;99.90
13684;DHT22;6914;53.552;9.908;2022-11-15T05:39:32;6.30;99.90
13684;DHT22;6914;53.552;9.908;2022-11-15T05:42:01;6.40;99.90
13684;DHT22;6914;53.552;9.908;2022-11-15T05:48:00;6.70;99.90
13684;DHT22;6914;53.552;9.908;2022-11-15T05:50:31;6.30;99.90
13684;DHT22;6914;53.552;9.908;2022-11-15T05:52:58;6.50;99.90
13684;DHT22;6914;53.552;9.908;2022-11-15T05:55:25;6.30;99.90
13684;DHT22;6914;53.552;9.908;2022-11-15T05:57:51;6.50;99.90
13684;DHT22;6914;53.552;9.908;2022-11-15T06:00:18;6.20;99.90
13684;DHT22;6914;53.552;9.908;2022-11-15T06:02:45;6.60;99.90
13684;DHT22;6914;53.552;9.908;2022-11-15T06:05:13;6.60;99.90
13684;DHT22;6914;53.552;9.908;2022-11-15T06:07:40;6.60;99.90
13684;DHT22;6914;53.552;9.908;2022-11-15T06:10:08;6.20;99.90
13684;DHT22;6914;53.552;9.908;2022-11-15T06:12:35;8.30;99.90
13684;DHT22;6914;53.552;9.908;2022-11-15T06:15:01;6.50;99.90
13684;DHT22;6914;53.552;9.908;2022-11-15T06:17:29;6.60;99.90
13684;DHT22;6914;53.552;9.908;2022-11-15T06:19:55;6.60;99.90
13684;DHT22;6914;53.552;9.908;2022-11-15T06:22:23;6.60;99.90
13684;DHT22;6914;53.552;9.908;2022-11-15T06:24:50;6.50;99.90
13684;DHT22;6914;53.552;9.908;2022-11-15T06:27:17;6.60;99.90
13684;DHT22;6914;53.552;9.908;2022-11-15T06:29:43;4.60;99.90
13684;DHT22;6914;53.552;9.908;2022-11-15T06:32:10;6.60;99.90
13684;DHT22;6914;53.552;9.908;2022-11-15T06:34:37;6.70;99.90
13684;DHT22;6914;53.552;9.908;2022-11-15T06:37:03;6.70;99.90
13684;DHT22;6914;53.552;9.908;2022-11-15T06:39:32;6.70;99.90
13684;DHT22;6914;53.552;9.908;2022-11-15T06:41:58;6.60;99.90
13684;DHT22;6914;53.552;9.908;2022-11-15T06:44:25;6.80;99.90
13684;DHT22;6914;53.552;9.908;2022-11-15T06:46:52;6.70;99.90
13684;DHT22;6914;53.552;9.908;2022-11-15T06:49:18;6.60;99.90
13684;DHT22;6914;53.552;9.908;2022-11-15T06:51:45;6.70;99.90
13684;DHT22;6914;53.552;9.908;2022-11-15T06:54:12;6.80;99.90
13684;DHT22;6914;53.552;9.908;2022-11-15T06:56:40;6.90;99.90
13684;DHT22;6914;53.552;9.908;2022-11-15T06:59:07;6.70;99.90
13684;DHT22;6914;53.552;9.908;2022-11-15T07:01:33;6.70;99.90
13684;DHT22;6914;53.552;9.908;2022-11-15T07:04:01;5.60;99.90
13684;DHT22;6914;53.552;9.908;2022-11-15T07:06:28;6.90;99.90
13684;DHT22;6914;53.552;9.908;2022-11-15T07:08:54;6.60;99.90
13684;DHT22;6914;53.552;9.908;2022-11-15T07:11:21;6.70;99.90
13684;DHT22;6914;53.552;9.908;2022-11-15T07:13:49;6.50;99.90
13684;DHT22;6914;53.552;9.908;2022-11-15T07:16:16;6.80;99.90
13684;DHT22;6914;53.552;9.908;2022-11-15T07:18:42;6.80;99.90
13684;DHT22;6914;53.552;9.908;2022-11-15T07:21:10;6.80;99.90
13684;DHT22;6914;53.552;9.908;2022-11-15T07:23:38;6.80;99.90
13684;DHT22;6914;53.552;9.908;2022-11-15T07:26:05;6.80;99.90
13684;DHT22;6914;53.552;9.908;2022-11-15T07:28:33;6.80;99.90
13684;DHT22;6914;53.552;9.908;2022-11-15T07:31:03;6.90;99.90
13684;DHT22;6914;53.552;9.908;2022-11-15T07:33:30;7.30;99.90
13684;DHT22;6914;53.552;9.908;2022-11-15T07:35:59;7.00;99.90
13684;DHT22;6914;53.552;9.908;2022-11-15T07:38:27;6.90;99.90
13684;DHT22;6914;53.552;9.908;2022-11-15T07:40:56;6.90;99.90
13684;DHT22;6914;53.552;9.908;2022-11-15T07:43:23;7.70;99.90
13684;DHT22;6914;53.552;9.908;2022-11-15T07:45:50;7.00;99.90
13684;DHT22;6914;53.552;9.908;2022-11-15T07:48:18;6.80;99.90
13684;DHT22;6914;53.552;9.908;2022-11-15T07:50:45;6.50;99.90
13684;DHT22;6914;53.552;9.908;2022-11-15T07:53:12;6.90;99.90
13684;DHT22;6914;53.552;9.908;2022-11-15T07:55:40;7.30;99.90
13684;DHT22;6914;53.552;9.908;2022-11-15T07:58:09;6.80;99.90
13684;DHT22;6914;53.552;9.908;2022-11-15T08:00:37;6.80;99.90
13684;DHT22;6914;53.552;9.908;2022-11-15T08:03:05;6.90;99.90
13684;DHT22;6914;53.552;9.908;2022-11-15T08:05:34;6.90;99.90
13684;DHT22;6914;53.552;9.908;2022-11-15T08:08:02;6.80;99.90
13684;DHT22;6914;53.552;9.908;2022-11-15T08:10:29;7.10;99.90
13684;DHT22;6914;53.552;9.908;2022-11-15T08:12:59;7.20;99.90
13684;DHT22;6914;53.552;9.908;2022-11-15T08:15:27;7.10;99.90
13684;DHT22;6914;53.552;9.908;2022-11-15T08:17:55;7.00;99.90
13684;DHT22;6914;53.552;9.908;2022-11-15T08:20:22;7.10;99.90
13684;DHT22;6914;53.552;9.908;2022-11-15T08:22:50;7.20;99.90
13684;DHT22;6914;53.552;9.908;2022-11-15T08:25:17;7.20;99.90
13684;DHT22;6914;53.552;9.908;2022-11-15T08:27:44;7.10;99.90
13684;DHT22;6914;53.552;9.908;2022-11-15T08:30:11;8.00;99.90
13684;DHT22;6914;53.552;9.908;2022-11-15T08:32:39;7.20;99.90
13684;DHT22;6914;53.552;9.908;2022-11-15T08:35:06;6.80;99.90
13684;DHT22;6914;53.552;9.908;2022-11-15T08:37:33;8.00;99.90
13684;DHT22;6914;53.552;9.908;2022-11-15T08:40:02;7.40;99.90
13684;DHT22;6914;53.552;9.908;2022-11-15T08:42:29;7.60;99.90
13684;DHT22;6914;53.552;9.908;2022-11-15T08:44:56;7.90;99.90
13684;DHT22;6914;53.552;9.908;2022-11-15T08:47:22;7.30;99.90
13684;DHT22;6914;53.552;9.908;2022-11-15T08:49:49;7.40;99.90
13684;DHT22;6914;53.552;9.908;2022-11-15T08:52:16;7.60;99.90
13684;DHT22;6914;53.552;9.908;2022-11-15T08:54:42;7.30;99.90
13684;DHT22;6914;53.552;9.908;2022-11-15T08:57:11;7.20;99.90
13684;DHT22;6914;53.552;9.908;2022-11-15T08:59:37;5.80;99.90
13684;DHT22;6914;53.552;9.908;2022-11-15T09:02:05;8.10;99.90
13684;DHT22;6914;53.552;9.908;2022-11-15T09:04:32;7.30;99.90
13684;DHT22;6914;53.552;9.908;2022-11-15T09:06:59;7.90;99.90
13684;DHT22;6914;53.552;9.908;2022-11-15T09:09:25;7.50;99.90
13684;DHT22;6914;53.552;9.908;2022-11-15T09:11:52;7.90;99.90
13684;DHT22;6914;53.552;9.908;2022-11-15T09:14:20;7.50;99.90
13684;DHT22;6914;53.552;9.908;2022-11-15T09:16:47;7.60;99.90
13684;DHT22;6914;53.552;9.908;2022-11-15T09:19:14;7.50;99.90
13684;DHT22;6914;53.552;9.908;2022-11-15T09:21:41;7.80;99.90
13684;DHT22;6914;53.552;9.908;2022-11-15T09:24:08;7.70;99.90
13684;DHT22;6914;53.552;9.908;2022-11-15T09:26:34;8.00;99.90
13684;DHT22;6914;53.552;9.908;2022-11-15T09:29:01;7.90;99.90
13684;DHT22;6914;53.552;9.908;2022-11-15T09:31:29;8.20;99.90
13684;DHT22;6914;53.552;9.908;2022-11-15T09:33:56;8.10;99.90
13684;DHT22;6914;53.552;9.908;2022-11-15T09:36:23;8.30;99.90
13684;DHT22;6914;53.552;9.908;2022-11-15T09:38:50;8.40;99.90
13684;DHT22;6914;53.552;9.908;2022-11-15T09:41:44;8.30;99.90
13684;DHT22;6914;53.552;9.908;2022-11-15T09:44:28;8.60;99.90
13684;DHT22;6914;53.552;9.908;2022-11-15T09:47:10;9.00;99.90
13684;DHT22;6914;53.552;9.908;2022-11-15T09:49:41;8.60;99.90
13684;DHT22;6914;53.552;9.908;2022-11-15T09:52:10;8.20;99.90
13684;DHT22;6914;53.552;9.908;2022-11-15T09:54:38;8.70;99.90
13684;DHT22;6914;53.552;9.908;2022-11-15T09:57:10;8.60;99.90
13684;DHT22;6914;53.552;9.908;2022-11-15T09:59:55;8.20;99.90
13684;DHT22;6914;53.552;9.908;2022-11-15T10:02:37;8.50;99.90
13684;DHT22;6914;53.552;9.908;2022-11-15T10:05:08;8.40;99.90
13684;DHT22;6914;53.552;9.908;2022-11-15T10:07:40;8.30;99.90
13684;DHT22;6914;53.552;9.908;2022-11-15T10:10:14;8.30;99.90
13684;DHT22;6914;53.552;9.908;2022-11-15T10:12:48;8.50;99.90
13684;DHT22;6914;53.552;9.908;2022-11-15T10:15:17;8.50;99.90
13684;DHT22;6914;53.552;9.908;2022-11-15T10:18:07;8.80;99.90
13684;DHT22;6914;53.552;9.908;2022-11-15T10:20:43;8.90;99.90
13684;DHT22;6914;53.552;9.908;2022-11-15T10:23:13;8.80;99.90
13684;DHT22;6914;53.552;9.908;2022-11-15T10:25:41;8.80;99.90
13684;DHT22;6914;53.552;9.908;2022-11-15T10:28:13;8.90;99.90
13684;DHT22;6914;53.552;9.908;2022-11-15T10:30:43;9.30;99.90
13684;DHT22;6914;53.552;9.908;2022-11-15T10:33:19;8.80;99.90
13684;DHT22;6914;53.552;9.908;2022-11-15T10:35:47;8.80;99.90
13684;DHT22;6914;53.552;9.908;2022-11-15T10:38:13;9.00;99.90
13684;DHT22;6914;53.552;9.908;2022-11-15T10:40:41;9.50;99.90
13684;DHT22;6914;53.552;9.908;2022-11-15T10:43:17;8.80;99.90
13684;DHT22;6914;53.552;9.908;2022-11-15T10:45:46;8.90;99.90
13684;DHT22;6914;53.552;9.908;2022-11-15T10:48:23;9.00;99.90
13684;DHT22;6914;53.552;9.908;2022-11-15T10:50:52;9.00;99.90
13684;DHT22;6914;53.552;9.908;2022-11-15T10:53:23;8.60;99.90
13684;DHT22;6914;53.552;9.908;2022-11-15T10:55:52;8.70;99.90
13684;DHT22;6914;53.552;9.908;2022-11-15T10:58:26;9.00;99.90
13684;DHT22;6914;53.552;9.908;2022-11-15T11:00:56;9.00;99.90
13684;DHT22;6914;53.552;9.908;2022-11-15T11:03:37;9.20;99.90
13684;DHT22;6914;53.552;9.908;2022-11-15T11:06:07;9.10;99.90
13684;DHT22;6914;53.552;9.908;2022-11-15T11:08:35;10.90;99.90
13684;DHT22;6914;53.552;9.908;2022-11-15T11:11:04;9.20;99.90
13684;DHT22;6914;53.552;9.908;2022-11-15T11:13:33;9.60;99.90
13684;DHT22;6914;53.552;9.908;2022-11-15T11:16:26;9.40;99.90
13684;DHT22;6914;53.552;9.908;2022-11-15T11:19:06;9.60;99.90
13684;DHT22;6914;53.552;9.908;2022-11-15T11:21:49;9.70;99.90
13684;DHT22;6914;53.552;9.908;2022-11-15T11:24:25;9.30;99.90
13684;DHT22;6914;53.552;9.908;2022-11-15T11:27:07;9.50;99.90
13684;DHT22;6914;53.552;9.908;2022-11-15T11:29:45;10.10;99.90
13684;DHT22;6914;53.552;9.908;2022-11-15T11:32:27;9.80;99.90
13684;DHT22;6914;53.552;9.908;2022-11-15T11:35:08;9.70;99.90
13684;DHT22;6914;53.552;9.908;2022-11-15T11:37:39;10.00;99.90
13684;DHT22;6914;53.552;9.908;2022-11-15T11:40:19;10.10;99.90
13684;DHT22;6914;53.552;9.908;2022-11-15T11:42:56;12.60;99.90
13684;DHT22;6914;53.552;9.908;2022-11-15T11:45:44;9.90;99.90
13684;DHT22;6914;53.552;9.908;2022-11-15T11:48:23;10.10;99.90
13684;DHT22;6914;53.552;9.908;2022-11-15T11:51:00;10.30;99.90
13684;DHT22;6914;53.552;9.908;2022-11-15T11:53:32;10.70;99.90
13684;DHT22;6914;53.552;9.908;2022-11-15T11:56:07;10.50;99.90
13684;DHT22;6914;53.552;9.908;2022-11-15T11:58:40;10.20;99.90
13684;DHT22;6914;53.552;9.908;2022-11-15T12:01:14;10.20;99.90
13684;DHT22;6914;53.552;9.908;2022-11-15T12:03:45;10.10;99.90
13684;DHT22;6914;53.552;9.908;2022-11-15T12:06:23;10.70;99.90
13684;DHT22;6914;53.552;9.908;2022-11-15T12:08:56;10.70;99.90
13684;DHT22;6914;53.552;9.908;2022-11-15T12:11:30;10.90;99.90
13684;DHT22;6914;53.552;9.908;2022-11-15T12:14:08;11.00;99.90
13684;DHT22;6914;53.552;9.908;2022-11-15T12:16:42;10.90;99.90
13684;DHT22;6914;53.552;9.908;2022-11-15T12:19:09;11.10;99.90
13684;DHT22;6914;53.552;9.908;2022-11-15T12:21:43;10.80;99.90
13684;DHT22;6914;53.552;9.908;2022-11-15T12:24:15;11.30;99.90
13684;DHT22;6914;53.552;9.908;2022-11-15T12:26:48;11.50;99.90
13684;DHT22;6914;53.552;9.908;2022-11-15T12:29:20;11.70;99.90
13684;DHT22;6914;53.552;9.908;2022-11-15T12:31:58;11.50;99.90
13684;DHT22;6914;53.552;9.908;2022-11-15T12:34:43;11.50;99.90
13684;DHT22;6914;53.552;9.908;2022-11-15T12:40:30;11.60;99.90
13684;DHT22;6914;53.552;9.908;2022-11-15T12:43:03;11.70;99.90
13684;DHT22;6914;53.552;9.908;2022-11-15T12:45:32;11.80;99.90
13684;DHT22;6914;53.552;9.908;2022-11-15T12:51:15;12.40;99.90
13684;DHT22;6914;53.552;9.908;2022-11-15T12:53:42;11.70;99.90
13684;DHT22;6914;53.552;9.908;2022-11-15T12:56:20;12.10;99.90
13684;DHT22;6914;53.552;9.908;2022-11-15T12:58:50;10.20;99.90
13684;DHT22;6914;53.552;9.908;2022-11-15T13:04:27;11.60;99.90
13684;DHT22;6914;53.552;9.908;2022-11-15T13:06:59;11.50;99.90
13684;DHT22;6914;53.552;9.908;2022-11-15T13:12:54;11.60;99.90
13684;DHT22;6914;53.552;9.908;2022-11-15T13:15:37;11.70;99.90
13684;DHT22;6914;53.552;9.908;2022-11-15T13:18:33;11.60;99.90
13684;DHT22;6914;53.552;9.908;2022-11-15T13:21:01;12.10;99.90
13684;DHT22;6914;53.552;9.908;2022-11-15T13:23:52;11.90;99.90
13684;DHT22;6914;53.552;9.908;2022-11-15T13:26:20;12.40;99.90
13684;DHT22;6914;53.552;9.908;2022-11-15T13:28:51;11.90;99.90
13684;DHT22;6914;53.552;9.908;2022-11-15T13:31:26;11.90;99.90
13684;DHT22;6914;53.552;9.908;2022-11-15T13:33:57;11.70;99.90
13684;DHT22;6914;53.552;9.908;2022-11-15T13:36:27;12.10;99.90
13684;DHT22;6914;53.552;9.908;2022-11-15T13:38:57;11.90;99.90
13684;DHT22;6914;53.552;9.908;2022-11-15T13:41:26;11.80;99.90
13684;DHT22;6914;53.552;9.908;2022-11-15T13:43:56;11.70;99.90
13684;DHT22;6914;53.552;9.908;2022-11-15T13:46:24;12.10;99.90
13684;DHT22;6914;53.552;9.908;2022-11-15T13:48:53;11.80;99.90
13684;DHT22;6914;53.552;9.908;2022-11-15T13:51:33;11.80;99.90
13684;DHT22;6914;53.552;9.908;2022-11-15T13:54:09;12.10;99.90
13684;DHT22;6914;53.552;9.908;2022-11-15T13:56:41;12.60;99.90
13684;DHT22;6914;53.552;9.908;2022-11-15T13:59:15;12.60;99.90
13684;DHT22;6914;53.552;9.908;2022-11-15T14:01:44;12.00;99.90
13684;DHT22;6914;53.552;9.908;2022-11-15T14:04:13;14.20;99.90
13684;DHT22;6914;53.552;9.908;2022-11-15T14:06:45;12.50;99.90
13684;DHT22;6914;53.552;9.908;2022-11-15T14:09:32;12.10;99.90
13684;DHT22;6914;53.552;9.908;2022-11-15T14:12:00;12.50;99.90
13684;DHT22;6914;53.552;9.908;2022-11-15T14:14:29;12.10;99.90
13684;DHT22;6914;53.552;9.908;2022-11-15T14:16:57;12.20;99.90
13684;DHT22;6914;53.552;9.908;2022-11-15T14:19:39;12.30;99.90
13684;DHT22;6914;53.552;9.908;2022-11-15T14:22:18;12.20;99.90
13684;DHT22;6914;53.552;9.908;2022-11-15T14:27:29;12.30;99.90
13684;DHT22;6914;53.552;9.908;2022-11-15T14:29:58;12.30;99.90
13684;DHT22;6914;53.552;9.908;2022-11-15T14:32:27;12.10;99.90
13684;DHT22;6914;53.552;9.908;2022-11-15T14:34:55;12.10;99.90
13684;DHT22;6914;53.552;9.908;2022-11-15T14:37:24;12.10;99.90
13684;DHT22;6914;53.552;9.908;2022-11-15T14:39:51;11.90;99.90
13684;DHT22;6914;53.552;9.908;2022-11-15T14:42:19;12.80;99.90
13684;DHT22;6914;53.552;9.908;2022-11-15T14:44:46;11.70;99.90
13684;DHT22;6914;53.552;9.908;2022-11-15T14:47:14;11.70;99.90
13684;DHT22;6914;53.552;9.908;2022-11-15T14:49:41;11.40;99.90
13684;DHT22;6914;53.552;9.908;2022-11-15T14:52:27;11.70;99.90
13684;DHT22;6914;53.552;9.908;2022-11-15T14:54:54;11.60;99.90
13684;DHT22;6914;53.552;9.908;2022-11-15T14:57:21;12.10;99.90
13684;DHT22;6914;53.552;9.908;2022-11-15T14:59:48;11.30;99.90
13684;DHT22;6914;53.552;9.908;2022-11-15T15:02:18;11.30;99.90
13684;DHT22;6914;53.552;9.908;2022-11-15T15:04:46;11.20;99.90
13684;DHT22;6914;53.552;9.908;2022-11-15T15:07:13;11.40;99.90
13684;DHT22;6914;53.552;9.908;2022-11-15T15:09:40;11.40;99.90
13684;DHT22;6914;53.552;9.908;2022-11-15T15:12:14;11.30;99.90
13684;DHT22;6914;53.552;9.908;2022-11-15T15:14:42;11.40;99.90
13684;DHT22;6914;53.552;9.908;2022-11-15T15:17:08;11.10;99.90
13684;DHT22;6914;53.552;9.908;2022-11-15T15:19:36;11.10;99.90
13684;DHT22;6914;53.552;9.908;2022-11-15T15:22:03;10.90;99.90
13684;DHT22;6914;53.552;9.908;2022-11-15T15:24:30;10.90;99.90
13684;DHT22;6914;53.552;9.908;2022-11-15T15:26:57;11.40;99.90
13684;DHT22;6914;53.552;9.908;2022-11-15T15:29:23;11.00;99.90
13684;DHT22;6914;53.552;9.908;2022-11-15T15:31:50;11.00;99.90
13684;DHT22;6914;53.552;9.908;2022-11-15T15:34:17;10.90;99.90
13684;DHT22;6914;53.552;9.908;2022-11-15T15:36:45;10.50;99.90
13684;DHT22;6914;53.552;9.908;2022-11-15T15:39:12;11.50;99.90
13684;DHT22;6914;53.552;9.908;2022-11-15T15:41:38;10.70;99.90
13684;DHT22;6914;53.552;9.908;2022-11-15T15:44:05;10.50;99.90
13684;DHT22;6914;53.552;9.908;2022-11-15T15:46:33;10.90;99.90
13684;DHT22;6914;53.552;9.908;2022-11-15T15:49:00;10.30;99.90
13684;DHT22;6914;53.552;9.908;2022-11-15T15:51:27;10.70;99.90
13684;DHT22;6914;53.552;9.908;2022-11-15T15:53:55;10.60;99.90
13684;DHT22;6914;53.552;9.908;2022-11-15T15:56:23;10.60;99.90
13684;DHT22;6914;53.552;9.908;2022-11-15T15:58:50;10.80;99.90
13684;DHT22;6914;53.552;9.908;2022-11-15T16:01:18;10.50;99.90
13684;DHT22;6914;53.552;9.908;2022-11-15T16:03:45;11.60;99.90
13684;DHT22;6914;53.552;9.908;2022-11-15T16:06:33;10.60;99.90
13684;DHT22;6914;53.552;9.908;2022-11-15T16:09:02;12.70;99.90
13684;DHT22;6914;53.552;9.908;2022-11-15T16:11:29;10.60;99.90
13684;DHT22;6914;53.552;9.908;2022-11-15T16:13:56;10.40;99.90
13684;DHT22;6914;53.552;9.908;2022-11-15T16:16:23;10.50;99.90
13684;DHT22;6914;53.552;9.908;2022-11-15T16:18:49;9.90;99.90
13684;DHT22;6914;53.552;9.908;2022-11-15T16:21:16;11.10;99.90
13684;DHT22;6914;53.552;9.908;2022-11-15T16:23:43;10.40;99.90
13684;DHT22;6914;53.552;9.908;2022-11-15T16:26:19;10.70;99.90
13684;DHT22;6914;53.552;9.908;2022-11-15T16:28:46;10.70;99.90
13684;DHT22;6914;53.552;9.908;2022-11-15T16:31:13;11.80;99.90
13684;DHT22;6914;53.552;9.908;2022-11-15T16:33:40;10.00;99.90
13684;DHT22;6914;53.552;9.908;2022-11-15T16:36:18;10.60;99.90